sensor_id;sensor_type;location;lat;lon;timestamp;P1;durP1;ratioP1;P2;durP2;ratioP2
72501;SDS011;60524;49.874;8.652;2022-09-09T00:03:07;2.10;;;0.60;;
72501;SDS011;60524;49.874;8.652;2022-09-09T00:08:43;2.13;;;0.55;;
72501;SDS011;60524;49.874;8.652;2022-09-09T00:11:29;7.10;;;0.50;;
72501;SDS011;60524;49.874;8.652;2022-09-09T00:14:29;1.67;;;0.40;;
72501;SDS011;60524;49.874;8.652;2022-09-09T00:21:14;2.80;;;0.60;;
72501;SDS011;60524;49.874;8.652;2022-09-09T00:28:07;1.20;;;0.35;;
72501;SDS011;60524;49.874;8.652;2022-09-09T00:30:25;1.98;;;0.40;;
72501;SDS011;60524;49.874;8.652;2022-09-09T00:33:00;1.02;;;0.50;;
72501;SDS011;60524;49.874;8.652;2022-09-09T00:35:40;1.85;;;0.57;;
72501;SDS011;60524;49.874;8.652;2022-09-09T00:38:17;2.22;;;0.47;;
72501;SDS011;60524;49.874;8.652;2022-09-09T00:43:35;1.15;;;0.43;;
72501;SDS011;60524;49.874;8.652;2022-09-09T00:46:21;2.85;;;0.65;;
72501;SDS011;60524;49.874;8.652;2022-09-09T00:55:16;0.93;;;0.47;;
72501;SDS011;60524;49.874;8.652;2022-09-09T00:57:40;5.65;;;0.52;;
72501;SDS011;60524;49.874;8.652;2022-09-09T01:10:48;0.68;;;0.30;;
72501;SDS011;60524;49.874;8.652;2022-09-09T01:13:22;1.42;;;0.80;;
72501;SDS011;60524;49.874;8.652;2022-09-09T01:15:50;1.83;;;0.50;;
72501;SDS011;60524;49.874;8.652;2022-09-09T01:18:19;4.30;;;0.73;;
72501;SDS011;60524;49.874;8.652;2022-09-09T01:20:55;1.20;;;0.43;;
72501;SDS011;60524;49.874;8.652;2022-09-09T01:26:35;4.30;;;0.68;;
72501;SDS011;60524;49.874;8.652;2022-09-09T01:29:00;2.30;;;0.57;;
72501;SDS011;60524;49.874;8.652;2022-09-09T01:31:27;6.35;;;0.80;;
72501;SDS011;60524;49.874;8.652;2022-09-09T01:33:54;3.85;;;0.50;;
72501;SDS011;60524;49.874;8.652;2022-09-09T01:38:58;2.70;;;0.60;;
72501;SDS011;60524;49.874;8.652;2022-09-09T01:41:23;2.30;;;0.60;;
72501;SDS011;60524;49.874;8.652;2022-09-09T01:43:49;4.13;;;0.97;;
72501;SDS011;60524;49.874;8.652;2022-09-09T01:46:15;1.33;;;0.60;;
72501;SDS011;60524;49.874;8.652;2022-09-09T01:48:41;1.67;;;0.60;;
72501;SDS011;60524;49.874;8.652;2022-09-09T01:51:07;4.13;;;0.60;;
72501;SDS011;60524;49.874;8.652;2022-09-09T01:53:35;1.17;;;0.50;;
72501;SDS011;60524;49.874;8.652;2022-09-09T02:01:58;3.80;;;0.65;;
72501;SDS011;60524;49.874;8.652;2022-09-09T02:04:41;1.20;;;0.68;;
72501;SDS011;60524;49.874;8.652;2022-09-09T02:12:43;4.30;;;0.65;;
72501;SDS011;60524;49.874;8.652;2022-09-09T02:15:15;1.95;;;0.75;;
72501;SDS011;60524;49.874;8.652;2022-09-09T02:17:44;2.08;;;0.52;;
72501;SDS011;60524;49.874;8.652;2022-09-09T02:20:12;0.85;;;0.43;;
72501;SDS011;60524;49.874;8.652;2022-09-09T02:22:39;3.45;;;0.98;;
72501;SDS011;60524;49.874;8.652;2022-09-09T02:25:08;5.85;;;0.95;;
72501;SDS011;60524;49.874;8.652;2022-09-09T02:27:36;2.90;;;0.63;;
72501;SDS011;60524;49.874;8.652;2022-09-09T02:30:01;2.33;;;0.70;;
72501;SDS011;60524;49.874;8.652;2022-09-09T02:32:28;1.52;;;0.60;;
72501;SDS011;60524;49.874;8.652;2022-09-09T02:34:57;4.60;;;0.75;;
72501;SDS011;60524;49.874;8.652;2022-09-09T02:37:25;1.63;;;0.50;;
72501;SDS011;60524;49.874;8.652;2022-09-09T02:39:54;4.93;;;0.77;;
72501;SDS011;60524;49.874;8.652;2022-09-09T02:42:20;1.88;;;0.47;;
72501;SDS011;60524;49.874;8.652;2022-09-09T02:44:45;3.60;;;0.70;;
72501;SDS011;60524;49.874;8.652;2022-09-09T02:49:57;3.60;;;0.65;;
72501;SDS011;60524;49.874;8.652;2022-09-09T02:52:33;1.85;;;0.50;;
72501;SDS011;60524;49.874;8.652;2022-09-09T02:55:05;2.97;;;0.55;;
72501;SDS011;60524;49.874;8.652;2022-09-09T02:57:35;0.90;;;0.52;;
72501;SDS011;60524;49.874;8.652;2022-09-09T03:00:01;4.97;;;0.60;;
72501;SDS011;60524;49.874;8.652;2022-09-09T03:02:28;1.20;;;0.50;;
72501;SDS011;60524;49.874;8.652;2022-09-09T03:04:53;1.13;;;0.40;;
72501;SDS011;60524;49.874;8.652;2022-09-09T03:07:19;3.28;;;0.70;;
72501;SDS011;60524;49.874;8.652;2022-09-09T03:09:44;2.97;;;0.60;;
72501;SDS011;60524;49.874;8.652;2022-09-09T03:12:10;1.52;;;0.60;;
72501;SDS011;60524;49.874;8.652;2022-09-09T03:14:36;5.90;;;0.70;;
72501;SDS011;60524;49.874;8.652;2022-09-09T03:17:03;1.23;;;0.50;;
72501;SDS011;60524;49.874;8.652;2022-09-09T03:19:30;1.30;;;0.60;;
72501;SDS011;60524;49.874;8.652;2022-09-09T03:21:56;4.28;;;0.68;;
72501;SDS011;60524;49.874;8.652;2022-09-09T03:24:21;0.60;;;0.30;;
72501;SDS011;60524;49.874;8.652;2022-09-09T03:26:47;2.72;;;0.70;;
72501;SDS011;60524;49.874;8.652;2022-09-09T03:29:13;2.05;;;0.70;;
72501;SDS011;60524;49.874;8.652;2022-09-09T03:31:39;2.90;;;0.70;;
72501;SDS011;60524;49.874;8.652;2022-09-09T03:34:05;3.72;;;0.60;;
72501;SDS011;60524;49.874;8.652;2022-09-09T03:36:30;3.60;;;0.50;;
72501;SDS011;60524;49.874;8.652;2022-09-09T03:38:57;1.30;;;0.43;;
72501;SDS011;60524;49.874;8.652;2022-09-09T03:41:23;1.27;;;0.70;;
72501;SDS011;60524;49.874;8.652;2022-09-09T03:43:51;0.98;;;0.50;;
72501;SDS011;60524;49.874;8.652;2022-09-09T03:46:18;3.00;;;0.50;;
72501;SDS011;60524;49.874;8.652;2022-09-09T03:48:43;3.30;;;0.68;;
72501;SDS011;60524;49.874;8.652;2022-09-09T03:51:09;1.08;;;0.50;;
72501;SDS011;60524;49.874;8.652;2022-09-09T03:53:35;1.92;;;0.70;;
72501;SDS011;60524;49.874;8.652;2022-09-09T03:56:02;3.03;;;0.80;;
72501;SDS011;60524;49.874;8.652;2022-09-09T03:58:28;5.30;;;0.80;;
72501;SDS011;60524;49.874;8.652;2022-09-09T04:00:58;1.20;;;0.40;;
72501;SDS011;60524;49.874;8.652;2022-09-09T04:03:24;2.40;;;0.68;;
72501;SDS011;60524;49.874;8.652;2022-09-09T04:05:51;3.53;;;0.80;;
72501;SDS011;60524;49.874;8.652;2022-09-09T04:08:17;4.40;;;0.70;;
72501;SDS011;60524;49.874;8.652;2022-09-09T04:10:44;1.48;;;0.52;;
72501;SDS011;60524;49.874;8.652;2022-09-09T04:13:11;7.68;;;0.80;;
72501;SDS011;60524;49.874;8.652;2022-09-09T04:15:39;3.63;;;0.80;;
72501;SDS011;60524;49.874;8.652;2022-09-09T04:18:04;1.30;;;0.60;;
72501;SDS011;60524;49.874;8.652;2022-09-09T04:20:30;3.05;;;0.63;;
72501;SDS011;60524;49.874;8.652;2022-09-09T04:22:55;3.87;;;0.87;;
72501;SDS011;60524;49.874;8.652;2022-09-09T04:25:21;3.17;;;0.50;;
72501;SDS011;60524;49.874;8.652;2022-09-09T04:27:46;1.77;;;0.60;;
72501;SDS011;60524;49.874;8.652;2022-09-09T04:30:12;3.13;;;0.70;;
72501;SDS011;60524;49.874;8.652;2022-09-09T04:32:37;3.37;;;0.73;;
72501;SDS011;60524;49.874;8.652;2022-09-09T04:35:03;3.63;;;1.25;;
72501;SDS011;60524;49.874;8.652;2022-09-09T04:37:28;4.00;;;0.70;;
72501;SDS011;60524;49.874;8.652;2022-09-09T04:39:54;2.20;;;0.77;;
72501;SDS011;60524;49.874;8.652;2022-09-09T04:42:19;2.27;;;0.50;;
72501;SDS011;60524;49.874;8.652;2022-09-09T04:44:44;5.30;;;0.60;;
72501;SDS011;60524;49.874;8.652;2022-09-09T04:47:10;2.65;;;0.60;;
72501;SDS011;60524;49.874;8.652;2022-09-09T04:49:35;1.65;;;0.50;;
72501;SDS011;60524;49.874;8.652;2022-09-09T04:52:02;2.42;;;0.70;;
72501;SDS011;60524;49.874;8.652;2022-09-09T04:54:27;1.85;;;0.60;;
72501;SDS011;60524;49.874;8.652;2022-09-09T04:56:53;2.50;;;0.65;;
72501;SDS011;60524;49.874;8.652;2022-09-09T04:59:19;3.22;;;0.63;;
72501;SDS011;60524;49.874;8.652;2022-09-09T05:01:45;2.00;;;0.50;;
72501;SDS011;60524;49.874;8.652;2022-09-09T05:04:10;0.83;;;0.40;;
72501;SDS011;60524;49.874;8.652;2022-09-09T05:06:36;1.25;;;0.43;;
72501;SDS011;60524;49.874;8.652;2022-09-09T05:09:01;3.47;;;0.63;;
72501;SDS011;60524;49.874;8.652;2022-09-09T05:11:27;4.05;;;0.75;;
72501;SDS011;60524;49.874;8.652;2022-09-09T05:13:55;4.40;;;0.73;;
72501;SDS011;60524;49.874;8.652;2022-09-09T05:16:21;2.70;;;0.63;;
72501;SDS011;60524;49.874;8.652;2022-09-09T05:18:47;0.50;;;0.30;;
72501;SDS011;60524;49.874;8.652;2022-09-09T05:21:14;0.43;;;0.30;;
72501;SDS011;60524;49.874;8.652;2022-09-09T05:23:40;3.08;;;0.70;;
72501;SDS011;60524;49.874;8.652;2022-09-09T05:26:11;1.40;;;0.40;;
72501;SDS011;60524;49.874;8.652;2022-09-09T05:28:40;1.05;;;0.43;;
72501;SDS011;60524;49.874;8.652;2022-09-09T05:31:09;4.83;;;0.50;;
72501;SDS011;60524;49.874;8.652;2022-09-09T05:33:38;1.30;;;0.45;;
72501;SDS011;60524;49.874;8.652;2022-09-09T05:36:09;2.95;;;1.05;;
72501;SDS011;60524;49.874;8.652;2022-09-09T05:38:37;2.75;;;0.60;;
72501;SDS011;60524;49.874;8.652;2022-09-09T05:41:03;2.75;;;0.60;;
72501;SDS011;60524;49.874;8.652;2022-09-09T05:43:29;0.73;;;0.38;;
72501;SDS011;60524;49.874;8.652;2022-09-09T05:46:04;2.65;;;0.47;;
72501;SDS011;60524;49.874;8.652;2022-09-09T05:48:40;9.35;;;0.80;;
72501;SDS011;60524;49.874;8.652;2022-09-09T05:53:34;2.88;;;0.60;;
72501;SDS011;60524;49.874;8.652;2022-09-09T05:56:03;0.57;;;0.30;;
72501;SDS011;60524;49.874;8.652;2022-09-09T05:58:32;1.35;;;0.43;;
72501;SDS011;60524;49.874;8.652;2022-09-09T06:01:05;0.82;;;0.50;;
72501;SDS011;60524;49.874;8.652;2022-09-09T06:03:46;2.40;;;0.30;;
72501;SDS011;60524;49.874;8.652;2022-09-09T06:06:18;3.47;;;0.70;;
72501;SDS011;60524;49.874;8.652;2022-09-09T06:08:47;1.73;;;0.50;;
72501;SDS011;60524;49.874;8.652;2022-09-09T06:11:14;2.00;;;0.57;;
72501;SDS011;60524;49.874;8.652;2022-09-09T06:13:41;3.00;;;0.52;;
72501;SDS011;60524;49.874;8.652;2022-09-09T06:16:13;2.13;;;0.40;;
72501;SDS011;60524;49.874;8.652;2022-09-09T06:21:09;3.35;;;0.30;;
72501;SDS011;60524;49.874;8.652;2022-09-09T06:23:36;2.28;;;0.57;;
72501;SDS011;60524;49.874;8.652;2022-09-09T06:26:12;2.50;;;0.50;;
72501;SDS011;60524;49.874;8.652;2022-09-09T06:28:39;1.98;;;0.60;;
72501;SDS011;60524;49.874;8.652;2022-09-09T06:31:06;0.85;;;0.47;;
72501;SDS011;60524;49.874;8.652;2022-09-09T06:33:34;4.15;;;0.93;;
72501;SDS011;60524;49.874;8.652;2022-09-09T06:38:26;1.55;;;0.52;;
72501;SDS011;60524;49.874;8.652;2022-09-09T06:40:56;1.08;;;0.47;;
72501;SDS011;60524;49.874;8.652;2022-09-09T06:43:23;2.10;;;0.52;;
72501;SDS011;60524;49.874;8.652;2022-09-09T06:45:59;8.05;;;0.70;;
72501;SDS011;60524;49.874;8.652;2022-09-09T06:48:25;3.47;;;0.68;;
72501;SDS011;60524;49.874;8.652;2022-09-09T06:50:59;3.10;;;0.82;;
72501;SDS011;60524;49.874;8.652;2022-09-09T06:53:36;2.13;;;0.30;;
72501;SDS011;60524;49.874;8.652;2022-09-09T06:56:17;4.38;;;0.70;;
72501;SDS011;60524;49.874;8.652;2022-09-09T06:58:44;3.08;;;0.55;;
72501;SDS011;60524;49.874;8.652;2022-09-09T07:01:10;3.25;;;0.55;;
72501;SDS011;60524;49.874;8.652;2022-09-09T07:03:40;2.17;;;0.50;;
72501;SDS011;60524;49.874;8.652;2022-09-09T07:06:09;3.72;;;0.82;;
72501;SDS011;60524;49.874;8.652;2022-09-09T07:08:48;3.97;;;0.70;;
72501;SDS011;60524;49.874;8.652;2022-09-09T07:11:17;1.65;;;0.63;;
72501;SDS011;60524;49.874;8.652;2022-09-09T07:13:44;0.98;;;0.57;;
72501;SDS011;60524;49.874;8.652;2022-09-09T07:16:10;3.30;;;0.63;;
72501;SDS011;60524;49.874;8.652;2022-09-09T07:18:36;10.43;;;0.95;;
72501;SDS011;60524;49.874;8.652;2022-09-09T07:21:03;2.40;;;0.70;;
72501;SDS011;60524;49.874;8.652;2022-09-09T07:23:29;2.47;;;0.60;;
72501;SDS011;60524;49.874;8.652;2022-09-09T07:25:55;2.53;;;0.65;;
72501;SDS011;60524;49.874;8.652;2022-09-09T07:28:22;6.22;;;0.93;;
72501;SDS011;60524;49.874;8.652;2022-09-09T07:30:54;4.73;;;0.80;;
72501;SDS011;60524;49.874;8.652;2022-09-09T07:33:20;4.20;;;0.60;;
72501;SDS011;60524;49.874;8.652;2022-09-09T07:35:45;3.03;;;0.70;;
72501;SDS011;60524;49.874;8.652;2022-09-09T07:38:11;3.03;;;0.80;;
72501;SDS011;60524;49.874;8.652;2022-09-09T07:40:36;2.15;;;0.50;;
72501;SDS011;60524;49.874;8.652;2022-09-09T07:43:01;2.17;;;0.60;;
72501;SDS011;60524;49.874;8.652;2022-09-09T07:45:27;3.67;;;0.97;;
72501;SDS011;60524;49.874;8.652;2022-09-09T07:47:56;3.28;;;1.10;;
72501;SDS011;60524;49.874;8.652;2022-09-09T07:50:22;3.42;;;0.80;;
72501;SDS011;60524;49.874;8.652;2022-09-09T07:52:48;3.53;;;0.60;;
72501;SDS011;60524;49.874;8.652;2022-09-09T07:55:13;5.43;;;0.83;;
72501;SDS011;60524;49.874;8.652;2022-09-09T07:57:40;2.42;;;0.80;;
72501;SDS011;60524;49.874;8.652;2022-09-09T08:00:05;2.25;;;0.63;;
72501;SDS011;60524;49.874;8.652;2022-09-09T08:02:31;5.50;;;0.90;;
72501;SDS011;60524;49.874;8.652;2022-09-09T08:04:56;4.67;;;0.70;;
72501;SDS011;60524;49.874;8.652;2022-09-09T08:07:22;3.50;;;0.85;;
72501;SDS011;60524;49.874;8.652;2022-09-09T08:09:48;9.73;;;1.00;;
72501;SDS011;60524;49.874;8.652;2022-09-09T08:12:14;4.80;;;0.70;;
72501;SDS011;60524;49.874;8.652;2022-09-09T08:14:40;2.20;;;0.80;;
72501;SDS011;60524;49.874;8.652;2022-09-09T08:17:05;4.33;;;0.67;;
72501;SDS011;60524;49.874;8.652;2022-09-09T08:19:31;4.70;;;0.82;;
72501;SDS011;60524;49.874;8.652;2022-09-09T08:21:59;1.90;;;0.80;;
72501;SDS011;60524;49.874;8.652;2022-09-09T08:24:24;5.45;;;0.80;;
72501;SDS011;60524;49.874;8.652;2022-09-09T08:26:50;2.90;;;0.68;;
72501;SDS011;60524;49.874;8.652;2022-09-09T08:29:15;4.13;;;0.60;;
72501;SDS011;60524;49.874;8.652;2022-09-09T08:31:42;2.70;;;0.60;;
72501;SDS011;60524;49.874;8.652;2022-09-09T08:34:12;4.90;;;1.00;;
72501;SDS011;60524;49.874;8.652;2022-09-09T08:36:48;4.22;;;1.05;;
72501;SDS011;60524;49.874;8.652;2022-09-09T08:39:15;1.58;;;0.75;;
72501;SDS011;60524;49.874;8.652;2022-09-09T08:41:49;7.05;;;1.48;;
72501;SDS011;60524;49.874;8.652;2022-09-09T08:53:01;3.58;;;0.77;;
72501;SDS011;60524;49.874;8.652;2022-09-09T09:06:47;4.82;;;0.85;;
72501;SDS011;60524;49.874;8.652;2022-09-09T09:11:59;9.95;;;1.23;;
72501;SDS011;60524;49.874;8.652;2022-09-09T09:14:31;8.43;;;1.20;;
72501;SDS011;60524;49.874;8.652;2022-09-09T09:19:29;8.05;;;1.27;;
72501;SDS011;60524;49.874;8.652;2022-09-09T09:22:05;4.35;;;0.80;;
72501;SDS011;60524;49.874;8.652;2022-09-09T09:27:33;3.83;;;1.17;;
72501;SDS011;60524;49.874;8.652;2022-09-09T09:30:02;6.60;;;1.10;;
72501;SDS011;60524;49.874;8.652;2022-09-09T09:32:36;2.20;;;1.13;;
72501;SDS011;60524;49.874;8.652;2022-09-09T09:35:02;8.13;;;1.07;;
72501;SDS011;60524;49.874;8.652;2022-09-09T09:37:32;2.72;;;0.63;;
72501;SDS011;60524;49.874;8.652;2022-09-09T09:40:13;5.55;;;0.82;;
72501;SDS011;60524;49.874;8.652;2022-09-09T09:42:48;5.97;;;0.95;;
72501;SDS011;60524;49.874;8.652;2022-09-09T09:45:28;3.60;;;1.00;;
72501;SDS011;60524;49.874;8.652;2022-09-09T09:47:58;4.95;;;1.15;;
72501;SDS011;60524;49.874;8.652;2022-09-09T09:50:25;4.03;;;0.80;;
72501;SDS011;60524;49.874;8.652;2022-09-09T09:52:54;8.97;;;1.00;;
72501;SDS011;60524;49.874;8.652;2022-09-09T09:55:21;5.03;;;0.73;;
72501;SDS011;60524;49.874;8.652;2022-09-09T10:00:15;5.60;;;0.70;;
72501;SDS011;60524;49.874;8.652;2022-09-09T10:02:43;3.15;;;0.50;;
72501;SDS011;60524;49.874;8.652;2022-09-09T10:05:14;1.25;;;0.50;;
72501;SDS011;60524;49.874;8.652;2022-09-09T10:07:40;2.28;;;1.73;;
72501;SDS011;60524;49.874;8.652;2022-09-09T10:10:18;4.10;;;0.70;;
72501;SDS011;60524;49.874;8.652;2022-09-09T10:19:09;1.80;;;0.75;;
72501;SDS011;60524;49.874;8.652;2022-09-09T10:35:25;3.42;;;0.90;;
72501;SDS011;60524;49.874;8.652;2022-09-09T10:55:33;3.80;;;0.75;;
72501;SDS011;60524;49.874;8.652;2022-09-09T10:58:02;5.10;;;1.08;;
72501;SDS011;60524;49.874;8.652;2022-09-09T11:02:58;8.00;;;1.60;;
72501;SDS011;60524;49.874;8.652;2022-09-09T11:05:28;5.80;;;1.23;;
72501;SDS011;60524;49.874;8.652;2022-09-09T11:08:03;6.88;;;1.42;;
72501;SDS011;60524;49.874;8.652;2022-09-09T11:13:24;6.20;;;1.40;;
72501;SDS011;60524;49.874;8.652;2022-09-09T11:15:58;7.70;;;1.02;;
72501;SDS011;60524;49.874;8.652;2022-09-09T11:18:48;5.13;;;0.98;;
72501;SDS011;60524;49.874;8.652;2022-09-09T11:21:19;3.70;;;0.98;;
72501;SDS011;60524;49.874;8.652;2022-09-09T11:23:49;6.28;;;1.20;;
72501;SDS011;60524;49.874;8.652;2022-09-09T11:26:25;5.32;;;1.65;;
72501;SDS011;60524;49.874;8.652;2022-09-09T11:29:03;6.43;;;1.80;;
72501;SDS011;60524;49.874;8.652;2022-09-09T11:31:49;6.18;;;1.42;;
72501;SDS011;60524;49.874;8.652;2022-09-09T11:37:40;9.52;;;1.30;;
72501;SDS011;60524;49.874;8.652;2022-09-09T11:40:27;11.27;;;1.67;;
72501;SDS011;60524;49.874;8.652;2022-09-09T11:43:02;3.25;;;1.20;;
72501;SDS011;60524;49.874;8.652;2022-09-09T11:45:30;7.82;;;1.13;;
72501;SDS011;60524;49.874;8.652;2022-09-09T11:47:58;12.30;;;1.17;;
72501;SDS011;60524;49.874;8.652;2022-09-09T11:52:50;9.40;;;1.30;;
72501;SDS011;60524;49.874;8.652;2022-09-09T11:55:29;5.82;;;1.17;;
72501;SDS011;60524;49.874;8.652;2022-09-09T11:57:58;5.57;;;1.42;;
72501;SDS011;60524;49.874;8.652;2022-09-09T12:00:35;2.65;;;1.23;;
72501;SDS011;60524;49.874;8.652;2022-09-09T12:06:07;6.07;;;1.20;;
72501;SDS011;60524;49.874;8.652;2022-09-09T12:08:39;4.47;;;1.38;;
72501;SDS011;60524;49.874;8.652;2022-09-09T12:11:07;2.05;;;0.98;;
72501;SDS011;60524;49.874;8.652;2022-09-09T12:13:32;6.47;;;1.15;;
72501;SDS011;60524;49.874;8.652;2022-09-09T12:15:59;8.45;;;1.15;;
72501;SDS011;60524;49.874;8.652;2022-09-09T12:23:55;5.63;;;1.30;;
72501;SDS011;60524;49.874;8.652;2022-09-09T12:37:09;3.97;;;0.70;;
72501;SDS011;60524;49.874;8.652;2022-09-09T12:39:57;4.43;;;0.70;;
72501;SDS011;60524;49.874;8.652;2022-09-09T12:42:24;2.45;;;1.02;;
72501;SDS011;60524;49.874;8.652;2022-09-09T12:44:51;2.50;;;0.85;;
72501;SDS011;60524;49.874;8.652;2022-09-09T12:47:17;2.53;;;0.90;;
72501;SDS011;60524;49.874;8.652;2022-09-09T12:49:44;2.20;;;0.70;;
72501;SDS011;60524;49.874;8.652;2022-09-09T12:52:14;1.45;;;0.40;;
72501;SDS011;60524;49.874;8.652;2022-09-09T12:54:45;3.40;;;0.70;;
72501;SDS011;60524;49.874;8.652;2022-09-09T12:57:15;3.40;;;0.70;;
72501;SDS011;60524;49.874;8.652;2022-09-09T12:59:42;3.22;;;0.65;;
72501;SDS011;60524;49.874;8.652;2022-09-09T13:02:20;3.25;;;0.93;;
72501;SDS011;60524;49.874;8.652;2022-09-09T13:04:47;2.25;;;0.50;;
72501;SDS011;60524;49.874;8.652;2022-09-09T13:07:15;1.85;;;0.60;;
72501;SDS011;60524;49.874;8.652;2022-09-09T13:09:41;2.25;;;0.43;;
72501;SDS011;60524;49.874;8.652;2022-09-09T13:12:09;2.20;;;0.50;;
72501;SDS011;60524;49.874;8.652;2022-09-09T13:14:39;1.05;;;0.38;;
72501;SDS011;60524;49.874;8.652;2022-09-09T13:17:17;2.40;;;0.88;;
72501;SDS011;60524;49.874;8.652;2022-09-09T13:19:45;0.73;;;0.30;;
72501;SDS011;60524;49.874;8.652;2022-09-09T13:22:14;0.60;;;0.30;;
72501;SDS011;60524;49.874;8.652;2022-09-09T13:24:45;9.07;;;0.63;;
72501;SDS011;60524;49.874;8.652;2022-09-09T13:27:22;1.48;;;0.30;;
72501;SDS011;60524;49.874;8.652;2022-09-09T13:29:53;0.43;;;0.22;;
72501;SDS011;60524;49.874;8.652;2022-09-09T13:32:22;0.77;;;0.30;;
72501;SDS011;60524;49.874;8.652;2022-09-09T13:34:56;1.85;;;0.22;;
72501;SDS011;60524;49.874;8.652;2022-09-09T13:37:39;1.00;;;0.32;;
72501;SDS011;60524;49.874;8.652;2022-09-09T13:40:17;3.53;;;0.90;;
72501;SDS011;60524;49.874;8.652;2022-09-09T13:42:43;1.15;;;0.40;;
72501;SDS011;60524;49.874;8.652;2022-09-09T13:45:16;0.35;;;0.15;;
72501;SDS011;60524;49.874;8.652;2022-09-09T13:47:45;1.17;;;0.40;;
72501;SDS011;60524;49.874;8.652;2022-09-09T13:52:48;0.60;;;0.40;;
72501;SDS011;60524;49.874;8.652;2022-09-09T13:55:15;1.67;;;0.60;;
72501;SDS011;60524;49.874;8.652;2022-09-09T13:57:49;1.63;;;0.40;;
72501;SDS011;60524;49.874;8.652;2022-09-09T14:00:25;2.65;;;0.52;;
72501;SDS011;60524;49.874;8.652;2022-09-09T14:02:51;1.10;;;0.20;;
72501;SDS011;60524;49.874;8.652;2022-09-09T14:05:17;1.92;;;0.45;;
72501;SDS011;60524;49.874;8.652;2022-09-09T14:07:43;4.50;;;0.70;;
72501;SDS011;60524;49.874;8.652;2022-09-09T14:10:09;1.80;;;0.55;;
72501;SDS011;60524;49.874;8.652;2022-09-09T14:12:35;1.27;;;0.50;;
72501;SDS011;60524;49.874;8.652;2022-09-09T14:15:01;1.67;;;0.70;;
72501;SDS011;60524;49.874;8.652;2022-09-09T14:17:28;1.25;;;0.60;;
72501;SDS011;60524;49.874;8.652;2022-09-09T14:19:56;2.05;;;0.50;;
72501;SDS011;60524;49.874;8.652;2022-09-09T14:22:22;3.22;;;0.70;;
72501;SDS011;60524;49.874;8.652;2022-09-09T14:24:48;1.45;;;0.65;;
72501;SDS011;60524;49.874;8.652;2022-09-09T14:27:14;3.10;;;0.50;;
72501;SDS011;60524;49.874;8.652;2022-09-09T14:29:40;3.03;;;0.95;;
72501;SDS011;60524;49.874;8.652;2022-09-09T14:32:05;8.80;;;2.20;;
72501;SDS011;60524;49.874;8.652;2022-09-09T14:34:31;13.90;;;4.07;;
72501;SDS011;60524;49.874;8.652;2022-09-09T14:36:57;3.40;;;1.33;;
72501;SDS011;60524;49.874;8.652;2022-09-09T14:39:22;3.03;;;0.90;;
72501;SDS011;60524;49.874;8.652;2022-09-09T14:41:48;3.27;;;0.97;;
72501;SDS011;60524;49.874;8.652;2022-09-09T14:44:13;3.23;;;0.90;;
72501;SDS011;60524;49.874;8.652;2022-09-09T14:46:38;2.07;;;0.80;;
72501;SDS011;60524;49.874;8.652;2022-09-09T14:49:04;3.43;;;0.80;;
72501;SDS011;60524;49.874;8.652;2022-09-09T14:51:29;2.78;;;0.63;;
72501;SDS011;60524;49.874;8.652;2022-09-09T14:53:56;1.52;;;0.88;;
72501;SDS011;60524;49.874;8.652;2022-09-09T14:56:24;1.38;;;0.60;;
72501;SDS011;60524;49.874;8.652;2022-09-09T14:58:54;3.50;;;0.55;;
72501;SDS011;60524;49.874;8.652;2022-09-09T15:01:20;2.03;;;0.60;;
72501;SDS011;60524;49.874;8.652;2022-09-09T15:03:49;14.95;;;3.53;;
72501;SDS011;60524;49.874;8.652;2022-09-09T15:06:20;5.07;;;1.25;;
72501;SDS011;60524;49.874;8.652;2022-09-09T15:08:46;0.90;;;0.60;;
72501;SDS011;60524;49.874;8.652;2022-09-09T15:11:12;2.22;;;0.90;;
72501;SDS011;60524;49.874;8.652;2022-09-09T15:13:39;3.95;;;0.47;;
72501;SDS011;60524;49.874;8.652;2022-09-09T15:16:15;2.25;;;0.65;;
72501;SDS011;60524;49.874;8.652;2022-09-09T15:18:42;2.10;;;0.85;;
72501;SDS011;60524;49.874;8.652;2022-09-09T15:23:35;5.15;;;1.00;;
72501;SDS011;60524;49.874;8.652;2022-09-09T15:26:02;3.00;;;0.80;;
72501;SDS011;60524;49.874;8.652;2022-09-09T15:28:27;3.88;;;0.55;;
72501;SDS011;60524;49.874;8.652;2022-09-09T15:30:53;9.20;;;0.82;;
72501;SDS011;60524;49.874;8.652;2022-09-09T15:33:19;3.95;;;0.90;;
72501;SDS011;60524;49.874;8.652;2022-09-09T15:35:46;4.20;;;1.00;;
72501;SDS011;60524;49.874;8.652;2022-09-09T15:38:12;4.30;;;1.73;;
72501;SDS011;60524;49.874;8.652;2022-09-09T15:40:41;6.45;;;1.30;;
72501;SDS011;60524;49.874;8.652;2022-09-09T15:43:07;3.28;;;1.25;;
72501;SDS011;60524;49.874;8.652;2022-09-09T15:45:34;2.55;;;0.80;;
72501;SDS011;60524;49.874;8.652;2022-09-09T15:48:00;2.28;;;0.93;;
72501;SDS011;60524;49.874;8.652;2022-09-09T15:50:26;3.75;;;0.70;;
72501;SDS011;60524;49.874;8.652;2022-09-09T15:52:52;2.58;;;0.60;;
72501;SDS011;60524;49.874;8.652;2022-09-09T15:55:18;1.02;;;0.40;;
72501;SDS011;60524;49.874;8.652;2022-09-09T15:57:45;4.13;;;0.60;;
72501;SDS011;60524;49.874;8.652;2022-09-09T16:00:11;1.75;;;0.60;;
72501;SDS011;60524;49.874;8.652;2022-09-09T16:02:38;2.75;;;0.77;;
72501;SDS011;60524;49.874;8.652;2022-09-09T16:05:03;2.00;;;0.50;;
72501;SDS011;60524;49.874;8.652;2022-09-09T16:07:29;2.38;;;0.93;;
72501;SDS011;60524;49.874;8.652;2022-09-09T16:09:55;7.50;;;1.23;;
72501;SDS011;60524;49.874;8.652;2022-09-09T16:12:20;9.70;;;1.00;;
72501;SDS011;60524;49.874;8.652;2022-09-09T16:14:46;4.13;;;0.98;;
72501;SDS011;60524;49.874;8.652;2022-09-09T16:17:11;1.48;;;0.73;;
72501;SDS011;60524;49.874;8.652;2022-09-09T16:19:37;1.38;;;0.60;;
72501;SDS011;60524;49.874;8.652;2022-09-09T16:22:02;1.92;;;0.95;;
72501;SDS011;60524;49.874;8.652;2022-09-09T16:24:29;1.88;;;0.55;;
72501;SDS011;60524;49.874;8.652;2022-09-09T16:26:54;1.73;;;0.50;;
72501;SDS011;60524;49.874;8.652;2022-09-09T16:29:20;1.73;;;0.70;;
72501;SDS011;60524;49.874;8.652;2022-09-09T16:31:47;4.57;;;1.00;;
72501;SDS011;60524;49.874;8.652;2022-09-09T16:34:13;9.05;;;1.95;;
72501;SDS011;60524;49.874;8.652;2022-09-09T16:36:40;5.95;;;1.42;;
72501;SDS011;60524;49.874;8.652;2022-09-09T16:39:07;3.03;;;0.98;;
72501;SDS011;60524;49.874;8.652;2022-09-09T16:41:34;1.85;;;0.73;;
72501;SDS011;60524;49.874;8.652;2022-09-09T16:44:04;6.43;;;1.75;;
72501;SDS011;60524;49.874;8.652;2022-09-09T16:46:32;9.20;;;2.35;;
72501;SDS011;60524;49.874;8.652;2022-09-09T16:49:00;4.95;;;2.05;;
72501;SDS011;60524;49.874;8.652;2022-09-09T16:51:36;5.78;;;2.08;;
72501;SDS011;60524;49.874;8.652;2022-09-09T16:54:04;2.42;;;1.08;;
72501;SDS011;60524;49.874;8.652;2022-09-09T16:56:35;2.92;;;1.02;;
72501;SDS011;60524;49.874;8.652;2022-09-09T16:59:06;3.38;;;0.70;;
72501;SDS011;60524;49.874;8.652;2022-09-09T17:01:37;1.73;;;0.50;;
72501;SDS011;60524;49.874;8.652;2022-09-09T17:04:04;0.98;;;0.50;;
72501;SDS011;60524;49.874;8.652;2022-09-09T17:06:31;2.47;;;0.68;;
72501;SDS011;60524;49.874;8.652;2022-09-09T17:09:00;3.92;;;0.88;;
72501;SDS011;60524;49.874;8.652;2022-09-09T17:11:26;6.60;;;1.75;;
72501;SDS011;60524;49.874;8.652;2022-09-09T17:13:52;4.20;;;1.33;;
72501;SDS011;60524;49.874;8.652;2022-09-09T17:16:20;5.38;;;2.15;;
72501;SDS011;60524;49.874;8.652;2022-09-09T17:18:47;12.07;;;3.42;;
72501;SDS011;60524;49.874;8.652;2022-09-09T17:21:13;12.43;;;3.20;;
72501;SDS011;60524;49.874;8.652;2022-09-09T17:23:40;10.13;;;3.15;;
72501;SDS011;60524;49.874;8.652;2022-09-09T17:26:10;12.23;;;2.63;;
72501;SDS011;60524;49.874;8.652;2022-09-09T17:28:37;5.65;;;1.10;;
72501;SDS011;60524;49.874;8.652;2022-09-09T17:31:03;2.38;;;0.70;;
72501;SDS011;60524;49.874;8.652;2022-09-09T17:33:35;4.57;;;0.60;;
72501;SDS011;60524;49.874;8.652;2022-09-09T17:36:06;5.80;;;1.17;;
72501;SDS011;60524;49.874;8.652;2022-09-09T17:38:36;2.35;;;0.65;;
72501;SDS011;60524;49.874;8.652;2022-09-09T17:41:06;4.30;;;0.90;;